Time;durP1;ratioP1;P1;durP2;ratioP2;P2;SDS_P1;SDS_P2;PMS_P1;PMS_P2;Temp;Humidity;BMP_temperature;BMP_pressure;BME280_temperature;BME280_humidity;BME280_pressure;Samples;Min_cycle;Max_cycle;Signal;HPM_P1;HPM_P2
2023/03/28 00:01:39;;;;;;;1.88;1.55;;;;;;;1.90;96.81;99513.47;4175864;28;20199;-53
2023/03/28 00:03:41;;;;;;;1.65;1.27;;;;;;;1.89;96.69;99517.16;4172162;28;20318;-50
2023/03/28 00:05:44;;;;;;;2.30;1.77;;;;;;;1.95;97.01;99527.28;4170217;28;20228;-50
2023/03/28 00:07:46;;;;;;;5.50;1.90;;;;;;;2.01;97.22;99526.59;4169308;28;20215;-50
2023/03/28 00:09:49;;;;;;;1.50;1.40;;;;;;;1.89;96.40;99527.94;4170653;28;20299;-50
2023/03/28 00:11:51;;;;;;;1.92;1.83;;;;;;;1.93;97.11;99534.72;4185208;28;20642;-51
2023/03/28 00:13:59;;;;;;;2.78;1.73;;;;;;;1.79;97.08;99537.25;4174741;28;20646;-50
2023/03/28 00:16:04;;;;;;;2.30;1.98;;;;;;;1.83;96.86;99536.75;4172108;28;20204;-51
2023/03/28 00:18:10;;;;;;;3.05;1.63;;;;;;;1.77;97.64;99540.13;4168738;28;20224;-52
2023/03/28 00:20:13;;;;;;;4.55;1.70;;;;;;;1.80;96.95;99545.16;4171246;28;20208;-52
2023/03/28 00:22:15;;;;;;;3.83;2.10;;;;;;;1.81;97.72;99538.75;4167233;28;20215;-51
2023/03/28 00:24:20;;;;;;;2.05;1.50;;;;;;;1.82;97.18;99543.13;4168639;28;20228;-51
2023/03/28 00:26:23;;;;;;;2.80;1.80;;;;;;;1.75;97.33;99541.31;4154311;28;20200;-52
2023/03/28 00:28:25;;;;;;;3.42;2.17;;;;;;;1.75;97.34;99544.81;4168888;28;20220;-51
2023/03/28 00:30:27;;;;;;;2.38;1.77;;;;;;;1.81;97.46;99546.03;4172043;28;20866;-50
2023/03/28 00:32:29;;;;;;;2.47;1.77;;;;;;;1.73;97.70;99544.16;4169876;28;20716;-51
2023/03/28 00:34:31;;;;;;;3.35;2.47;;;;;;;1.70;97.71;99544.53;4168362;28;20251;-50
2023/03/28 00:36:33;;;;;;;2.22;2.00;;;;;;;1.62;98.39;99547.19;4168321;28;20231;-51
2023/03/28 00:38:37;;;;;;;3.97;1.83;;;;;;;1.73;98.32;99549.56;4170097;28;20244;-52
2023/03/28 00:40:38;;;;;;;2.38;2.17;;;;;;;1.71;97.63;99538.09;4168080;28;20287;-51
2023/03/28 00:42:41;;;;;;;2.15;1.95;;;;;;;1.61;98.47;99545.50;4191328;28;20207;-51
2023/03/28 00:44:52;;;;;;;2.28;2.00;;;;;;;1.70;98.11;99552.59;4185805;28;20219;-52
2023/03/28 00:46:54;;;;;;;2.15;2.00;;;;;;;1.77;97.62;99550.06;4168971;28;20208;-51
2023/03/28 00:49:12;;;;;;;1.73;1.60;;;;;;;1.65;97.62;99552.28;4170289;28;20216;-50
2023/03/28 00:51:15;;;;;;;2.60;2.40;;;;;;;1.68;97.44;99551.91;4167238;28;20234;-51
2023/03/28 00:53:22;;;;;;;2.10;2.00;;;;;;;1.38;98.39;99549.91;4168600;28;20232;-50
2023/03/28 00:55:29;;;;;;;3.28;1.92;;;;;;;1.41;99.24;99559.50;4171152;28;20318;-51
2023/03/28 00:57:32;;;;;;;2.72;2.03;;;;;;;1.52;98.82;99551.94;4171378;28;20243;-50
2023/03/28 00:59:36;;;;;;;2.60;2.03;;;;;;;1.55;98.21;99554.28;4152895;28;20221;-50
2023/03/28 01:01:37;;;;;;;2.40;1.92;;;;;;;1.37;98.69;99553.59;4165524;28;20208;-50
2023/03/28 01:03:44;;;;;;;3.13;2.28;;;;;;;1.20;99.77;99556.44;4173610;28;20868;-50
2023/03/28 01:05:47;;;;;;;3.35;3.05;;;;;;;1.33;99.66;99551.41;4173331;28;20998;-50
2023/03/28 01:07:52;;;;;;;4.13;1.75;;;;;;;1.38;99.25;99546.34;4168512;28;20243;-51
2023/03/28 01:09:54;;;;;;;2.53;2.30;;;;;;;1.50;99.06;99555.78;4174992;28;20302;-50
2023/03/28 01:11:57;;;;;;;2.72;2.53;;;;;;;1.43;98.77;99547.53;4167632;28;20299;-50
2023/03/28 01:14:01;;;;;;;2.30;2.10;;;;;;;1.42;98.63;99545.84;4170277;28;20236;-51
2023/03/28 01:16:04;;;;;;;4.50;1.85;;;;;;;1.33;98.54;99544.16;4186762;28;20302;-51
2023/03/28 01:18:10;;;;;;;4.20;1.67;;;;;;;1.39;98.41;99551.56;4168183;28;20974;-51
2023/03/28 01:20:34;;;;;;;4.85;2.17;;;;;;;1.40;98.68;99555.94;4169391;28;20207;-52
2023/03/28 01:22:42;;;;;;;3.85;2.45;;;;;;;1.32;98.81;99550.56;4169038;28;20291;-51
2023/03/28 01:25:09;;;;;;;3.40;1.92;;;;;;;1.41;98.47;99554.94;4181995;28;20231;-50
2023/03/28 01:27:35;;;;;;;3.38;2.30;;;;;;;1.46;98.66;99552.59;4166246;28;20204;-52
2023/03/28 01:30:02;;;;;;;2.47;2.05;;;;;;;1.45;98.29;99550.91;4166588;28;20250;-51
2023/03/28 01:32:22;;;;;;;2.42;2.22;;;;;;;1.46;98.20;99552.59;4200359;28;20913;-50
2023/03/28 01:34:41;;;;;;;2.40;2.15;;;;;;;1.36;98.24;99554.63;4182124;28;20258;-51
2023/03/28 01:37:22;;;;;;;5.80;2.65;;;;;;;1.42;98.63;99548.53;4169318;28;20205;-54
2023/03/28 01:39:42;;;;;;;2.85;2.35;;;;;;;1.33;98.23;99552.25;4173895;28;20678;-51
2023/03/28 01:41:56;;;;;;;3.88;2.22;;;;;;;1.34;98.68;99553.91;4168032;28;20300;-51
2023/03/28 01:44:07;;;;;;;2.60;2.40;;;;;;;1.36;98.32;99551.94;4168431;28;20733;-52
2023/03/28 01:46:12;;;;;;;2.88;2.25;;;;;;;1.34;98.59;99553.09;4167585;28;20247;-49
2023/03/28 01:48:19;;;;;;;4.50;3.08;;;;;;;1.39;98.55;99556.09;4167247;28;20218;-50
2023/03/28 01:50:44;;;;;;;5.00;2.83;;;;;;;1.41;98.69;99549.53;4166828;28;20298;-50
2023/03/28 01:52:58;;;;;;;3.38;2.80;;;;;;;1.44;98.49;99557.31;4157291;28;20675;-51
2023/03/28 01:55:08;;;;;;;2.90;2.40;;;;;;;1.41;98.11;99549.53;4173727;28;20255;-50
2023/03/28 01:57:33;;;;;;;2.97;2.78;;;;;;;1.31;98.21;99554.25;4167401;28;20216;-51
2023/03/28 01:59:37;;;;;;;2.83;2.63;;;;;;;1.32;98.83;99555.09;4168518;28;20203;-53
2023/03/28 02:01:48;;;;;;;3.35;2.58;;;;;;;1.27;98.77;99558.28;4200547;28;20329;-51
2023/03/28 02:03:55;;;;;;;10.52;2.25;;;;;;;1.21;99.00;99558.13;4166047;28;20218;-53
2023/03/28 02:05:58;;;;;;;3.78;2.30;;;;;;;1.14;99.10;99555.22;4173481;28;20227;-51
2023/03/28 02:08:01;;;;;;;2.13;1.92;;;;;;;1.07;99.20;99551.50;4173876;28;20204;-50
2023/03/28 02:10:05;;;;;;;2.97;2.28;;;;;;;1.03;99.69;99550.19;4168531;28;20204;-50
2023/03/28 02:12:12;;;;;;;2.85;2.28;;;;;;;1.05;100.00;99548.16;4171444;28;20299;-51
2023/03/28 02:14:17;;;;;;;3.45;2.95;;;;;;;1.13;99.43;99548.16;4184096;28;20207;-50
2023/03/28 02:16:21;;;;;;;3.33;2.70;;;;;;;1.12;99.33;99554.56;4166994;28;20232;-50
2023/03/28 02:18:33;;;;;;;3.38;2.15;;;;;;;1.19;99.37;99558.28;4182357;28;20270;-49
2023/03/28 02:20:35;;;;;;;3.40;3.10;;;;;;;1.06;98.89;99552.53;4167102;28;20307;-49
2023/03/28 02:22:43;;;;;;;3.00;2.72;;;;;;;1.16;98.51;99550.53;4183767;28;20208;-50
2023/03/28 02:24:49;;;;;;;3.92;3.47;;;;;;;1.03;99.44;99554.72;4152396;28;20256;-50
2023/03/28 02:26:52;;;;;;;5.28;4.40;;;;;;;1.08;99.20;99547.81;4172687;28;20596;-50
2023/03/28 02:28:55;;;;;;;6.15;5.07;;;;;;;1.01;99.67;99546.78;4166974;28;20248;-51
2023/03/28 02:30:57;;;;;;;5.90;5.22;;;;;;;0.92;99.14;99544.22;4183209;28;20208;-49
2023/03/28 02:33:01;;;;;;;6.07;5.20;;;;;;;0.91;99.87;99550.63;4167460;28;20231;-50
2023/03/28 02:35:05;;;;;;;6.18;5.50;;;;;;;0.86;100.00;99548.44;4175177;28;20232;-52
2023/03/28 02:37:10;;;;;;;4.78;4.22;;;;;;;0.81;99.64;99545.38;4168651;28;20227;-52
2023/03/28 02:39:29;;;;;;;5.95;3.28;;;;;;;0.80;99.95;99542.88;4170912;28;20228;-50
2023/03/28 02:41:53;;;;;;;2.58;2.38;;;;;;;0.69;99.81;99541.28;4187527;28;20255;-49
2023/03/28 02:44:16;;;;;;;3.65;3.17;;;;;;;0.67;100.00;99540.63;4173427;28;20306;-50
2023/03/28 02:46:23;;;;;;;3.42;2.80;;;;;;;0.68;100.00;99534.22;4172242;28;20224;-50
2023/03/28 02:49:00;;;;;;;2.92;2.72;;;;;;;0.59;100.00;99534.34;4172250;28;20246;-50
2023/03/28 02:51:08;;;;;;;4.30;3.90;;;;;;;0.55;100.00;99533.84;4111000;28;20771;-50
2023/03/28 02:53:31;;;;;;;4.70;2.97;;;;;;;0.59;100.00;99535.22;4138611;28;20299;-52
2023/03/28 02:55:39;;;;;;;3.25;2.20;;;;;;;0.61;100.00;99537.75;4171111;28;20216;-51
2023/03/28 02:57:45;;;;;;;7.05;2.97;;;;;;;0.55;100.00;99539.22;4171994;28;20330;-51
2023/03/28 03:00:00;;;;;;;3.50;3.03;;;;;;;0.59;100.00;99535.22;4175530;28;20294;-50
2023/03/28 03:02:07;;;;;;;3.58;3.28;;;;;;;0.67;100.00;99529.84;4186488;28;20291;-51
2023/03/28 03:04:09;;;;;;;3.45;3.15;;;;;;;0.67;100.00;99532.53;4171259;28;20258;-50
2023/03/28 03:06:11;;;;;;;4.05;3.65;;;;;;;0.64;100.00;99527.50;4171623;28;20713;-50
2023/03/28 03:08:13;;;;;;;3.92;3.53;;;;;;;0.61;100.00;99530.50;4172371;28;20247;-50
2023/03/28 03:10:15;;;;;;;5.28;4.88;;;;;;;0.64;100.00;99532.88;4188020;28;20291;-50
2023/03/28 03:12:17;;;;;;;5.80;5.30;;;;;;;0.56;100.00;99540.91;4154025;28;20792;-52
2023/03/28 03:14:19;;;;;;;6.00;5.50;;;;;;;0.55;100.00;99533.00;4173435;28;20700;-50
2023/03/28 03:16:22;;;;;;;6.35;5.85;;;;;;;0.58;100.00;99536.22;4171042;28;20214;-51
2023/03/28 03:18:25;;;;;;;4.75;4.35;;;;;;;0.53;100.00;99537.69;4200705;28;20268;-51
2023/03/28 03:20:33;;;;;;;2.80;2.60;;;;;;;0.44;100.00;99536.84;4170041;28;20303;-50
2023/03/28 03:22:35;;;;;;;4.35;3.22;;;;;;;0.41;100.00;99534.44;4185983;28;20256;-52
2023/03/28 03:24:38;;;;;;;2.70;2.60;;;;;;;0.37;100.00;99541.19;4152675;28;20654;-52
2023/03/28 03:26:39;;;;;;;2.38;2.17;;;;;;;0.40;100.00;99535.47;4190245;28;20241;-50
2023/03/28 03:28:41;;;;;;;3.55;3.25;;;;;;;0.38;100.00;99537.47;4168209;28;20244;-52
2023/03/28 03:30:43;;;;;;;3.60;2.33;;;;;;;0.39;100.00;99531.09;4169089;28;20232;-53
2023/03/28 03:32:45;;;;;;;2.40;2.20;;;;;;;0.37;100.00;99519.66;4175638;28;20308;-53
2023/03/28 03:34:46;;;;;;;3.22;2.90;;;;;;;0.42;100.00;99529.91;4177672;28;20290;-53
2023/03/28 03:36:48;;;;;;;2.92;2.28;;;;;;;0.29;100.00;99530.34;4170470;28;20213;-51
2023/03/28 03:38:51;;;;;;;6.20;2.92;;;;;;;0.26;100.00;99528.00;4170146;28;20224;-51
2023/03/28 03:40:52;;;;;;;4.32;3.70;;;;;;;0.28;100.00;99531.34;4169285;28;20343;-51
2023/03/28 03:42:54;;;;;;;5.35;2.58;;;;;;;0.34;100.00;99538.78;4190755;28;20378;-51
2023/03/28 03:44:56;;;;;;;2.58;2.38;;;;;;;0.27;100.00;99540.44;4200582;28;20313;-51
2023/03/28 03:46:57;;;;;;;6.03;2.80;;;;;;;0.33;100.00;99545.19;4166191;28;20216;-50
2023/03/28 03:48:59;;;;;;;3.67;2.67;;;;;;;0.38;100.00;99542.00;4199614;28;20763;-50
2023/03/28 03:51:01;;;;;;;3.57;2.83;;;;;;;0.38;100.00;99545.56;4167912;28;20254;-51
2023/03/28 03:53:03;;;;;;;2.63;2.42;;;;;;;0.25;100.00;99547.84;4169894;28;20247;-51
2023/03/28 03:55:05;;;;;;;4.00;2.88;;;;;;;0.20;100.00;99544.78;4171361;28;20231;-51
2023/03/28 03:57:07;;;;;;;3.50;3.20;;;;;;;0.14;100.00;99550.78;4169431;28;20292;-52
2023/03/28 03:59:09;;;;;;;3.10;2.45;;;;;;;0.11;100.00;99548.44;4169442;28;20234;-51
2023/03/28 04:01:12;;;;;;;3.38;2.17;;;;;;;0.15;100.00;99547.09;4157646;28;20367;-52
2023/03/28 04:03:15;;;;;;;4.20;3.08;;;;;;;0.09;100.00;99552.28;4157471;28;20235;-52
2023/03/28 04:05:26;;;;;;;4.70;2.70;;;;;;;0.14;100.00;99547.28;4171825;28;20526;-51
2023/03/28 04:07:27;;;;;;;3.63;3.23;;;;;;;0.00;100.00;99546.00;4153700;28;20292;-52
2023/03/28 04:09:29;;;;;;;6.80;3.33;;;;;;;0.06;100.00;99548.06;4172208;28;20569;-50
2023/03/28 04:11:31;;;;;;;4.05;3.65;;;;;;;0.02;100.00;99549.38;4183880;28;20705;-51
2023/03/28 04:13:33;;;;;;;3.50;3.20;;;;;;;-0.03;100.00;99554.41;4167870;28;20278;-51
2023/03/28 04:15:34;;;;;;;4.30;3.63;;;;;;;-0.08;100.00;99555.03;4169879;28;20251;-51
2023/03/28 04:17:36;;;;;;;6.63;5.37;;;;;;;-0.13;100.00;99557.34;4188413;28;20258;-51
2023/03/28 04:19:38;;;;;;;4.77;4.40;;;;;;;0.05;100.00;99557.13;4171048;28;20717;-51
2023/03/28 04:21:41;;;;;;;5.13;4.73;;;;;;;-0.05;100.00;99567.13;4168424;28;20747;-51
2023/03/28 04:23:47;;;;;;;4.17;3.77;;;;;;;-0.02;100.00;99561.47;4169732;28;20208;-51
2023/03/28 04:25:49;;;;;;;5.17;3.83;;;;;;;0.01;100.00;99563.81;4170846;28;20234;-50
2023/03/28 04:27:53;;;;;;;3.67;3.30;;;;;;;0.08;100.00;99564.88;4169430;28;20706;-52
2023/03/28 04:29:55;;;;;;;4.37;3.97;;;;;;;0.13;100.00;99570.63;4167560;28;20243;-51
2023/03/28 04:31:57;;;;;;;4.30;4.00;;;;;;;0.12;100.00;99565.41;4167378;28;20698;-51
2023/03/28 04:33:59;;;;;;;5.18;3.33;;;;;;;0.02;100.00;99568.19;4169200;28;20216;-50
2023/03/28 04:36:01;;;;;;;3.88;3.58;;;;;;;0.09;100.00;99569.25;4155629;28;20209;-50
2023/03/28 04:38:03;;;;;;;3.33;3.03;;;;;;;0.06;100.00;99574.09;4170953;28;20632;-50
2023/03/28 04:40:15;;;;;;;5.20;2.93;;;;;;;-0.11;100.00;99577.69;4184725;28;20204;-50
2023/03/28 04:42:16;;;;;;;3.47;3.17;;;;;;;-0.17;100.00;99577.47;4165126;28;20242;-51
2023/03/28 04:44:18;;;;;;;3.67;3.30;;;;;;;-0.15;100.00;99579.00;4155593;28;20779;-51
2023/03/28 04:46:20;;;;;;;3.37;3.07;;;;;;;-0.14;100.00;99577.16;4169549;28;20287;-51
2023/03/28 04:48:22;;;;;;;7.03;3.03;;;;;;;0.01;100.00;99576.44;4170667;28;20204;-50
2023/03/28 04:50:24;;;;;;;5.17;3.97;;;;;;;-0.15;100.00;99587.06;4167927;28;21302;-50
2023/03/28 04:52:26;;;;;;;4.10;3.80;;;;;;;-0.21;100.00;99582.31;4171682;28;20814;-50
2023/03/28 04:54:27;;;;;;;4.40;4.00;;;;;;;-0.31;100.00;99581.56;4169758;28;20331;-52
2023/03/28 04:56:29;;;;;;;6.40;4.27;;;;;;;-0.35;100.00;99584.75;4200033;28;20256;-51
2023/03/28 04:58:31;;;;;;;5.07;4.57;;;;;;;-0.39;100.00;99584.19;4169945;28;21193;-51
2023/03/28 05:00:33;;;;;;;7.40;4.73;;;;;;;-0.39;100.00;99586.03;4182236;28;20216;-51
2023/03/28 05:02:35;;;;;;;5.93;5.33;;;;;;;-0.38;100.00;99590.41;4196685;28;20711;-51
2023/03/28 05:04:39;;;;;;;5.73;5.33;;;;;;;-0.37;100.00;99597.47;4148757;28;20233;-51
2023/03/28 05:06:40;;;;;;;5.70;4.80;;;;;;;-0.30;100.00;99603.91;4165614;28;20273;-51
2023/03/28 05:08:42;;;;;;;6.03;5.43;;;;;;;-0.25;100.00;99607.00;4183655;28;20257;-50
2023/03/28 05:10:46;;;;;;;5.93;5.43;;;;;;;-0.28;100.00;99602.75;4170908;28;20586;-50
2023/03/28 05:12:49;;;;;;;7.07;6.47;;;;;;;-0.29;100.00;99601.06;4169339;28;20231;-50
2023/03/28 05:14:54;;;;;;;5.93;5.43;;;;;;;-0.31;100.00;99597.72;4136630;28;20239;-51
2023/03/28 05:16:58;;;;;;;4.87;4.33;;;;;;;-0.28;100.00;99600.06;4168727;28;20247;-50
2023/03/28 05:19:02;;;;;;;4.10;3.90;;;;;;;-0.28;100.00;99605.44;4189172;28;20223;-51
2023/03/28 05:21:09;;;;;;;3.63;3.33;;;;;;;-0.32;100.00;99604.09;4181124;28;20267;-51
2023/03/28 05:23:13;;;;;;;2.70;2.50;;;;;;;-0.33;100.00;99599.72;4166993;28;20335;-50
2023/03/28 05:25:17;;;;;;;4.73;2.87;;;;;;;-0.39;100.00;99604.84;4152571;28;20344;-50
2023/03/28 05:27:21;;;;;;;3.70;3.40;;;;;;;-0.45;100.00;99603.63;4166630;28;20214;-52
2023/03/28 05:29:24;;;;;;;4.27;3.80;;;;;;;-0.46;100.00;99603.78;4182632;28;20204;-49
2023/03/28 05:31:29;;;;;;;10.93;3.63;;;;;;;-0.43;100.00;99603.47;4184619;28;20208;-49
2023/03/28 05:33:34;;;;;;;6.57;4.50;;;;;;;-0.39;100.00;99610.22;4183985;28;20214;-50
2023/03/28 05:35:38;;;;;;;12.70;5.07;;;;;;;-0.34;100.00;99618.69;4182466;28;20260;-50
2023/03/28 05:37:41;;;;;;;7.40;4.90;;;;;;;-0.29;100.00;99611.00;4167781;28;20890;-49
2023/03/28 05:39:49;;;;;;;8.83;5.00;;;;;;;-0.25;100.00;99617.75;4153036;28;20208;-50
2023/03/28 05:41:53;;;;;;;5.47;4.47;;;;;;;-0.22;100.00;99617.44;4181543;28;20358;-50
2023/03/28 05:43:56;;;;;;;4.37;3.97;;;;;;;-0.15;100.00;99622.03;4159256;28;20235;-51
2023/03/28 05:45:59;;;;;;;6.00;5.50;;;;;;;-0.22;100.00;99614.75;4185799;28;20303;-50
2023/03/28 05:48:01;;;;;;;6.30;5.70;;;;;;;-0.19;100.00;99615.28;4166596;28;20204;-50
2023/03/28 05:50:05;;;;;;;7.57;6.87;;;;;;;-0.23;100.00;99616.59;4164148;28;20272;-50
2023/03/28 05:52:07;;;;;;;13.83;7.73;;;;;;;-0.33;100.00;99615.00;4173076;28;20216;-50
2023/03/28 05:54:09;;;;;;;9.90;5.83;;;;;;;-0.35;100.00;99612.44;4180783;28;20218;-50
2023/03/28 05:56:10;;;;;;;6.83;6.07;;;;;;;-0.35;100.00;99604.38;4168484;28;20219;-50
2023/03/28 05:58:12;;;;;;;5.50;4.97;;;;;;;-0.28;100.00;99607.31;4171449;28;20228;-51
2023/03/28 06:00:14;;;;;;;7.43;5.17;;;;;;;-0.16;100.00;99606.06;4166642;28;20232;-51
2023/03/28 06:02:19;;;;;;;6.03;4.60;;;;;;;-0.13;100.00;99612.81;4167082;28;20232;-50
2023/03/28 06:04:21;;;;;;;6.67;5.63;;;;;;;0.09;100.00;99617.69;4150708;28;20232;-51
2023/03/28 06:06:23;;;;;;;8.20;4.67;;;;;;;0.22;100.00;99612.72;4169597;28;20208;-50
2023/03/28 06:08:26;;;;;;;6.00;5.40;;;;;;;0.29;100.00;99605.69;4170228;28;20299;-50
2023/03/28 06:10:28;;;;;;;5.20;4.90;;;;;;;0.52;100.00;99603.31;4172629;28;20208;-52
2023/03/28 06:12:29;;;;;;;7.37;4.87;;;;;;;0.98;100.00;99610.94;4169037;28;20219;-51
2023/03/28 06:14:32;;;;;;;6.97;5.17;;;;;;;1.38;100.00;99609.22;4171981;28;20309;-50
2023/03/28 06:16:34;;;;;;;4.97;4.10;;;;;;;1.68;100.00;99611.25;4182901;28;20215;-50
2023/03/28 06:18:35;;;;;;;8.03;4.13;;;;;;;1.77;100.00;99615.66;4170565;28;20289;-51
2023/03/28 06:20:37;;;;;;;9.32;4.20;;;;;;;1.96;100.00;99631.53;4201707;28;20668;-50
2023/03/28 06:22:39;;;;;;;8.43;7.83;;;;;;;2.49;100.00;99629.13;4173565;28;20211;-52
2023/03/28 06:24:41;;;;;;;5.35;4.95;;;;;;;2.42;100.00;99628.09;4201846;28;20318;-52
2023/03/28 06:26:43;;;;;;;6.00;5.57;;;;;;;2.99;100.00;99631.47;4156700;28;20867;-53
2023/03/28 06:28:44;;;;;;;9.63;8.93;;;;;;;3.44;99.33;99628.91;4170142;28;20306;-52
2023/03/28 06:30:48;;;;;;;9.43;8.43;;;;;;;4.02;98.07;99634.59;4183303;28;20211;-50
2023/03/28 06:32:49;;;;;;;6.32;5.90;;;;;;;4.00;95.72;99633.94;4168786;28;20278;-50
2023/03/28 06:34:51;;;;;;;5.75;5.25;;;;;;;3.45;90.75;99636.84;4171019;28;20228;-50
2023/03/28 06:36:58;;;;;;;5.28;4.78;;;;;;;4.52;95.02;99640.22;4162879;28;20275;-52
2023/03/28 06:39:04;;;;;;;5.45;4.38;;;;;;;4.72;89.70;99642.25;4170263;28;20249;-50
2023/03/28 06:41:06;;;;;;;3.83;3.53;;;;;;;5.01;88.74;99642.25;4189933;28;20290;-50
2023/03/28 06:43:08;;;;;;;3.40;3.20;;;;;;;5.11;88.91;99637.38;4170065;28;20216;-49
2023/03/28 06:45:10;;;;;;;4.72;4.20;;;;;;;4.42;85.59;99645.09;4171749;28;20228;-49
2023/03/28 06:47:12;;;;;;;5.32;4.47;;;;;;;4.77;89.44;99645.25;4178034;28;20295;-50
2023/03/28 06:49:13;;;;;;;6.20;3.80;;;;;;;5.40;84.49;99648.19;4171578;28;20232;-49
2023/03/28 06:51:15;;;;;;;4.63;4.13;;;;;;;6.07;85.44;99646.91;4169683;28;20219;-49
2023/03/28 06:53:17;;;;;;;4.07;3.38;;;;;;;6.05;83.08;99644.41;4169127;28;20212;-48
2023/03/28 06:55:21;;;;;;;3.38;2.72;;;;;;;6.85;82.66;99650.31;4186386;28;20318;-49
2023/03/28 06:57:23;;;;;;;4.57;3.88;;;;;;;7.25;80.61;99649.50;4185232;28;20208;-50
2023/03/28 06:59:25;;;;;;;5.65;3.58;;;;;;;6.51;75.23;99644.81;4180980;28;20231;-52
2023/03/28 07:01:38;;;;;;;4.22;3.42;;;;;;;6.70;78.71;99652.31;4166242;28;20303;-48
2023/03/28 07:04:00;;;;;;;3.25;2.95;;;;;;;7.06;77.89;99650.25;4182025;28;20901;-47
2023/03/28 07:06:16;;;;;;;3.70;3.28;;;;;;;6.60;78.17;99649.91;4187045;28;20706;-50
2023/03/28 07:08:18;;;;;;;4.13;3.17;;;;;;;7.26;76.12;99649.31;4184186;28;20294;-49
2023/03/28 07:10:20;;;;;;;3.25;2.95;;;;;;;7.00;78.75;99661.91;4167772;28;20302;-48
2023/03/28 07:12:22;;;;;;;3.25;2.95;;;;;;;7.80;75.09;99657.50;4169005;28;20331;-48
2023/03/28 07:14:23;;;;;;;3.22;2.42;;;;;;;7.87;72.75;99652.91;4168763;28;20381;-48
2023/03/28 07:16:25;;;;;;;5.95;3.55;;;;;;;8.57;71.65;99653.28;4168589;28;20303;-49
2023/03/28 07:18:27;;;;;;;3.08;2.88;;;;;;;8.26;73.49;99650.31;4178015;28;20238;-49
2023/03/28 07:20:28;;;;;;;6.75;3.15;;;;;;;8.42;74.12;99652.66;4184557;28;20246;-49
2023/03/28 07:22:31;;;;;;;3.67;3.38;;;;;;;8.56;70.78;99654.34;4172088;28;20572;-49
2023/03/28 07:24:32;;;;;;;5.72;2.80;;;;;;;8.85;69.78;99653.91;4163317;28;20373;-48
2023/03/28 07:26:34;;;;;;;4.72;3.85;;;;;;;8.96;68.28;99656.00;4167600;28;21095;-48
2023/03/28 07:28:36;;;;;;;4.28;3.50;;;;;;;9.22;68.40;99658.69;4166693;28;20208;-48
2023/03/28 07:30:38;;;;;;;5.13;4.63;;;;;;;9.71;66.29;99659.81;4169971;28;20255;-48
2023/03/28 07:32:40;;;;;;;4.28;3.38;;;;;;;9.59;66.08;99649.75;4163294;28;20208;-48
2023/03/28 07:34:57;;;;;;;4.90;3.78;;;;;;;9.53;68.35;99650.59;4184714;28;20719;-48
2023/03/28 07:36:59;;;;;;;6.50;4.22;;;;;;;9.71;66.11;99653.47;4173036;28;20212;-47
2023/03/28 07:39:00;;;;;;;5.75;3.25;;;;;;;9.14;67.10;99650.72;4171628;28;20271;-47
2023/03/28 07:41:03;;;;;;;5.22;4.15;;;;;;;8.79;67.58;99654.75;4159568;28;21222;-48
2023/03/28 07:43:05;;;;;;;7.05;3.30;;;;;;;8.73;68.78;99663.78;4201569;28;20222;-48
2023/03/28 07:45:07;;;;;;;8.07;3.40;;;;;;;8.57;66.08;99665.06;4166536;28;20303;-48
2023/03/28 07:47:09;;;;;;;6.53;3.08;;;;;;;8.81;68.98;99667.13;4169067;28;20212;-49
2023/03/28 07:49:14;;;;;;;4.30;3.08;;;;;;;9.29;68.20;99664.97;4201840;28;20738;-48
2023/03/28 07:51:17;;;;;;;7.70;3.40;;;;;;;8.51;70.19;99670.50;4191953;28;20227;-47
2023/03/28 07:53:25;;;;;;;3.75;3.22;;;;;;;9.33;68.78;99661.59;4186486;28;20211;-48
2023/03/28 07:55:29;;;;;;;3.50;3.00;;;;;;;9.40;67.72;99669.75;4168323;28;20236;-47
2023/03/28 07:57:44;;;;;;;6.10;3.42;;;;;;;7.04;72.22;99674.94;4160047;28;20292;-47
2023/03/28 07:59:49;;;;;;;4.75;3.13;;;;;;;6.55;75.69;99684.19;4168684;28;20608;-48
2023/03/28 08:01:53;;;;;;;3.58;3.28;;;;;;;6.95;78.10;99691.63;4186550;28;20812;-48
2023/03/28 08:03:55;;;;;;;5.18;3.53;;;;;;;7.62;73.74;99679.03;4170482;28;20295;-47
2023/03/28 08:06:01;;;;;;;4.03;3.55;;;;;;;7.74;72.35;99682.84;4153285;28;20232;-48
2023/03/28 08:08:04;;;;;;;4.88;3.85;;;;;;;8.33;74.08;99682.00;4169575;28;20255;-47
2023/03/28 08:10:08;;;;;;;7.88;3.05;;;;;;;9.63;68.50;99689.25;4175984;28;20215;-49
2023/03/28 08:12:10;;;;;;;5.22;3.45;;;;;;;10.11;66.55;99694.13;4168100;28;20240;-48
2023/03/28 08:14:15;;;;;;;5.68;3.72;;;;;;;10.42;64.25;99685.13;4168758;28;20204;-48
2023/03/28 08:16:17;;;;;;;2.97;2.67;;;;;;;9.96;63.59;99684.50;4168508;28;20290;-49
2023/03/28 08:18:23;;;;;;;3.88;2.65;;;;;;;9.51;65.92;99680.03;4149751;28;20300;-48
2023/03/28 08:20:25;;;;;;;7.03;3.13;;;;;;;9.66;67.59;99680.59;4154591;28;20224;-48
2023/03/28 08:22:27;;;;;;;6.88;3.20;;;;;;;10.43;64.70;99686.78;4166384;28;20200;-49
2023/03/28 08:24:29;;;;;;;4.10;2.83;;;;;;;10.55;61.93;99685.03;4173653;28;20236;-48
2023/03/28 08:26:37;;;;;;;3.53;2.08;;;;;;;10.55;64.24;99685.03;4172836;28;20204;-49
2023/03/28 08:28:38;;;;;;;5.70;3.58;;;;;;;9.31;60.97;99681.97;4184411;28;20226;-48
2023/03/28 08:30:40;;;;;;;2.90;2.00;;;;;;;8.62;64.13;99684.34;4168534;28;20266;-49
2023/03/28 08:32:42;;;;;;;4.38;2.20;;;;;;;8.51;67.15;99675.94;4172760;28;20291;-48
2023/03/28 08:34:43;;;;;;;4.45;2.08;;;;;;;9.11;68.25;99673.84;4200843;28;20226;-48
2023/03/28 08:36:47;;;;;;;4.30;2.40;;;;;;;9.88;65.20;99671.06;4169265;28;20335;-48
2023/03/28 08:38:50;;;;;;;4.53;1.75;;;;;;;10.80;61.11;99678.50;4166146;28;20641;-48
2023/03/28 08:41:10;;;;;;;5.75;1.98;;;;;;;10.13;61.80;99674.75;4185530;28;20238;-48
2023/03/28 08:43:30;;;;;;;5.10;2.20;;;;;;;8.99;61.39;99675.53;4175035;28;20207;-48
2023/03/28 08:45:51;;;;;;;6.50;2.10;;;;;;;9.13;65.11;99676.34;4171625;28;20223;-48
2023/03/28 08:48:33;;;;;;;7.97;2.30;;;;;;;9.42;61.91;99675.88;4176618;28;20299;-48
2023/03/28 08:50:48;;;;;;;5.80;1.80;;;;;;;9.51;60.24;99677.31;4123018;28;20238;-48
2023/03/28 08:52:50;;;;;;;3.78;2.42;;;;;;;9.70;60.72;99679.13;4128216;28;20321;-49
2023/03/28 08:55:50;;;;;;;4.97;2.17;;;;;;;10.20;64.81;99681.00;4124382;28;20316;-48
2023/03/28 08:57:55;;;;;;;3.47;1.92;;;;;;;10.29;58.03;99680.53;4104240;28;20214;-48
2023/03/28 09:00:13;;;;;;;5.30;2.25;;;;;;;10.77;58.10;99683.59;4156720;28;20322;-47
2023/03/28 09:02:21;;;;;;;2.20;1.45;;;;;;;10.33;54.30;99678.19;4169025;28;20299;-48
2023/03/28 09:04:28;;;;;;;5.60;1.95;;;;;;;10.29;56.92;99679.72;4168318;28;20265;-48
2023/03/28 09:06:43;;;;;;;4.43;1.85;;;;;;;11.01;55.72;99676.22;4169718;28;20291;-49
2023/03/28 09:08:57;;;;;;;2.50;1.02;;;;;;;11.00;56.75;99679.16;4159665;28;20212;-48
2023/03/28 09:11:45;;;;;;;2.85;1.40;;;;;;;11.66;52.94;99670.09;4166503;28;20299;-48
2023/03/28 09:14:15;;;;;;;2.42;1.30;;;;;;;10.34;55.67;99671.69;4154671;28;20304;-49
2023/03/28 09:16:41;;;;;;;2.00;1.50;;;;;;;10.48;54.54;99673.28;4148559;28;20235;-51
2023/03/28 09:19:14;;;;;;;3.03;1.02;;;;;;;10.33;53.95;99670.00;4167348;28;20208;-48
2023/03/28 09:21:27;;;;;;;3.00;1.92;;;;;;;9.92;52.16;99669.56;4199289;28;20234;-48
2023/03/28 09:24:11;;;;;;;1.98;1.17;;;;;;;9.33;53.81;99667.06;4169136;28;20720;-48
2023/03/28 09:26:17;;;;;;;4.57;1.02;;;;;;;10.47;54.12;99672.44;4121779;28;20210;-48
2023/03/28 09:28:34;;;;;;;2.63;1.48;;;;;;;10.82;51.15;99677.22;4149547;28;20220;-48
2023/03/28 09:30:42;;;;;;;3.70;1.95;;;;;;;10.44;48.93;99667.41;4165282;28;20211;-48
2023/03/28 09:32:43;;;;;;;3.67;1.02;;;;;;;10.58;49.53;99668.16;4197998;28;20237;-47
2023/03/28 09:34:48;;;;;;;2.63;1.10;;;;;;;9.63;47.33;99661.94;4178961;28;20292;-48
2023/03/28 09:36:52;;;;;;;1.50;1.23;;;;;;;9.16;47.49;99665.00;4165220;28;20212;-48
2023/03/28 09:39:10;;;;;;;2.80;1.45;;;;;;;9.18;49.77;99666.47;4188210;28;20293;-48
2023/03/28 09:41:19;;;;;;;2.58;1.40;;;;;;;9.90;47.93;99668.97;4181775;28;20295;-49
2023/03/28 09:43:24;;;;;;;1.05;0.95;;;;;;;10.11;46.17;99665.94;4168877;28;20212;-48
2023/03/28 09:45:39;;;;;;;3.47;1.33;;;;;;;10.41;46.90;99661.53;4180412;28;20245;-48
2023/03/28 09:47:45;;;;;;;3.10;1.15;;;;;;;11.02;47.86;99661.44;4180496;28;20844;-48
2023/03/28 09:49:47;;;;;;;2.22;1.35;;;;;;;11.14;45.09;99648.69;4166243;28;20765;-48
2023/03/28 09:51:56;;;;;;;1.75;1.23;;;;;;;11.65;46.75;99654.69;4183829;28;20258;-50
2023/03/28 09:53:58;;;;;;;4.75;1.23;;;;;;;11.44;44.69;99665.25;4174306;28;20215;-47
2023/03/28 09:56:07;;;;;;;1.77;1.10;;;;;;;11.31;44.30;99666.19;4166922;28;20819;-48
2023/03/28 09:58:13;;;;;;;2.80;1.30;;;;;;;10.74;45.74;99662.13;4167350;28;20227;-48